Temp: 12.6°C   Baro: 1022.3mb
  Wind: 0.0mph   Dir: NE (54°)
  Rain: 0.0mm (0.0mm/hr)
  Solar: 0W/m2  Hum: 82%

Historic data

Bath Spa Weather Station Historical Data
Daily Summary for September 15, 2021 Units:  Metric    English   Both
Daily Weekly Monthly Yearly Custom
  High: Low: Average:
Temperature: 21.4 °C 12.5 °C 16.2 °C
Dew Point: 16.2 °C 12.1 °C 14 °C
Humidity: 95% 67.6% 85%
Wind Speed: 10.9km/h 0km/h 2.7km/h
Wind Gust: 20.9km/h - -
Wind- - West
Pressure: 1017.8 hPa 1013.4 hPa -
Precipitation: 0 mm    
Historical Graphs
 
 
Tabular Data for September 15, 2021
Time Temperature Dew Point Pressure Wind Wind Speed Wind Gust Humidity Rainfall Rate (Hourly) solar
00:04 14.7 °C 14.1 °C 1013.4 hPa Calm     93% 0 mm 0 W/m2
00:09 14.7 °C 14.1 °C 1013.4 hPa Calm     93% 0 mm 0 W/m2
00:14 14.7 °C 14.1 °C 1013.4 hPa North 0.3 km/h 3.2 km/h 93% 0 mm 0 W/m2
00:19 14.7 °C 14.1 °C 1013.4 hPa Calm   1.6 km/h 93% 0 mm 0 W/m2
00:24 14.7 °C 14.1 °C 1013.4 hPa Calm     93% 0 mm 0 W/m2
00:29 14.7 °C 14.1 °C 1013.4 hPa North 0.3 km/h 4.8 km/h 93% 0 mm 0 W/m2
00:34 14.7 °C 14.1 °C 1013.4 hPa Calm   3.2 km/h 93% 0 mm 0 W/m2
00:39 14.7 °C 14.1 °C 1013.4 hPa North 0.3 km/h 1.6 km/h 93% 0 mm 0 W/m2
00:44 14.7 °C 14.1 °C 1013.4 hPa North 1.6 km/h 3.2 km/h 93% 0 mm 0 W/m2
00:49 14.7 °C 14.1 °C 1013.4 hPa North 3.2 km/h 6.4 km/h 93% 0 mm 0 W/m2
00:54 14.7 °C 14.1 °C 1013.4 hPa North 3.5 km/h 8 km/h 93% 0 mm 0 W/m2
00:59 14.7 °C 14.1 °C 1013.4 hPa North 4 km/h 8 km/h 93% 0 mm 0 W/m2
01:04 14.7 °C 14.1 °C 1013.4 hPa North 5.1 km/h 8 km/h 93% 0 mm 0 W/m2
01:09 14.7 °C 14.1 °C 1013.4 hPa North 4.5 km/h 9.7 km/h 93% 0 mm 0 W/m2
01:14 14.7 °C 14.1 °C 1013.8 hPa North 4.3 km/h 6.4 km/h 93% 0 mm 0 W/m2
01:19 14.7 °C 14.1 °C 1013.8 hPa North 3.9 km/h 6.4 km/h 93% 0 mm 0 W/m2
01:24 14.7 °C 14.1 °C 1013.8 hPa North 1.8 km/h 6.4 km/h 93% 0 mm 0 W/m2
01:29 14.7 °C 14.1 °C 1013.4 hPa North 2.4 km/h 8 km/h 93% 0 mm 0 W/m2
01:34 14.6 °C 14 °C 1013.4 hPa North 3.4 km/h 9.7 km/h 93% 0 mm 0 W/m2
01:39 14.6 °C 14 °C 1013.4 hPa North 3.2 km/h 6.4 km/h 93% 0 mm 0 W/m2
01:44 14.6 °C 14 °C 1013.4 hPa North 3.1 km/h 6.4 km/h 93% 0 mm 0 W/m2
01:49 14.6 °C 14 °C 1013.4 hPa North 0.6 km/h 6.4 km/h 93% 0 mm 0 W/m2
01:54 14.6 °C 14 °C 1013.4 hPa North 1.9 km/h 6.4 km/h 93% 0 mm 0 W/m2
01:59 14.5 °C 13.9 °C 1013.4 hPa North 0.8 km/h 6.4 km/h 93% 0 mm 0 W/m2
02:04 14.5 °C 13.9 °C 1013.4 hPa North 1 km/h 3.2 km/h 93% 0 mm 0 W/m2
02:09 14.5 °C 13.9 °C 1013.4 hPa North 3.2 km/h 6.4 km/h 93% 0 mm 0 W/m2
02:14 14.4 °C 13.8 °C 1013.4 hPa North 1.9 km/h 6.4 km/h 93% 0 mm 0 W/m2
02:19 14.4 °C 13.8 °C 1013.4 hPa North 1.3 km/h 4.8 km/h 93% 0 mm 0 W/m2
02:24 14.4 °C 13.7 °C 1013.4 hPa North 2.9 km/h 8 km/h 92.8% 0 mm 0 W/m2
02:29 14.4 °C 13.6 °C 1013.4 hPa North 1.6 km/h 8 km/h 92% 0 mm 0 W/m2
02:34 14.4 °C 13.6 °C 1013.4 hPa North 1.6 km/h 11.3 km/h 92% 0 mm 0 W/m2
02:39 14.4 °C 13.6 °C 1013.4 hPa North 1 km/h 4.8 km/h 92% 0 mm 0 W/m2
02:44 14.4 °C 13.6 °C 1013.4 hPa North 3.1 km/h 9.7 km/h 92% 0 mm 0 W/m2
02:49 14.4 °C 13.6 °C 1013.4 hPa North 0.6 km/h 6.4 km/h 92% 0 mm 0 W/m2
02:54 14.4 °C 13.6 °C 1013.4 hPa North 1.9 km/h 4.8 km/h 92% 0 mm 0 W/m2
02:59 14.4 °C 13.6 °C 1013.4 hPa North 0.3 km/h 3.2 km/h 92% 0 mm 0 W/m2
03:04 14.4 °C 13.6 °C 1013.4 hPa Calm   3.2 km/h 92% 0 mm 0 W/m2
03:09 14.4 °C 13.6 °C 1013.4 hPa North 0.3 km/h 3.2 km/h 92% 0 mm 0 W/m2
03:14 14.4 °C 13.6 °C 1013.4 hPa Calm   1.6 km/h 92% 0 mm 0 W/m2
03:19 14.4 °C 13.7 °C 1013.4 hPa Calm     92% 0 mm 0 W/m2
03:24 14.5 °C 13.7 °C 1013.4 hPa Calm     92% 0 mm 0 W/m2
03:29 14.5 °C 13.6 °C 1013.4 hPa North 0.3 km/h 3.2 km/h 91.6% 0 mm 0 W/m2
03:34 14.5 °C 13.5 °C 1013.4 hPa Calm     91% 0 mm 0 W/m2
03:39 14.6 °C 13.6 °C 1013.4 hPa Calm     91% 0 mm 0 W/m2
03:44 14.6 °C 13.6 °C 1013.4 hPa North 1 km/h 3.2 km/h 91% 0 mm 0 W/m2
03:49 14.4 °C 13.4 °C 1013.4 hPa Calm   3.2 km/h 91% 0 mm 0 W/m2
03:54 14.4 °C 13.4 °C 1013.4 hPa Calm   1.6 km/h 91% 0 mm 0 W/m2
03:59 14.4 °C 13.4 °C 1013.4 hPa Calm     91% 0 mm 0 W/m2
04:04 14.4 °C 13.4 °C 1013.4 hPa Calm     91% 0 mm 0 W/m2
04:09 14.4 °C 13.4 °C 1013.4 hPa North 3.9 km/h 4.8 km/h 91% 0 mm 0 W/m2
04:14 14.4 °C 13.4 °C 1013.4 hPa North 1.9 km/h 6.4 km/h 91.2% 0 mm 0 W/m2
04:19 14.4 °C 13.6 °C 1013.4 hPa North 0.3 km/h 3.2 km/h 92% 0 mm 0 W/m2
04:24 14.4 °C 13.6 °C 1013.4 hPa North 1.9 km/h 8 km/h 92% 0 mm 0 W/m2
04:29 14.4 °C 13.6 °C 1013.4 hPa North 0.6 km/h 4.8 km/h 92% 0 mm 0 W/m2
04:34 14.4 °C 13.6 °C 1013.4 hPa Calm     92% 0 mm 0 W/m2
04:39 14.3 °C 13.5 °C 1013.4 hPa North 0.6 km/h 3.2 km/h 92% 0 mm 0 W/m2
04:44 14.3 °C 13.5 °C 1013.4 hPa Calm   3.2 km/h 92% 0 mm 0 W/m2
04:49 14.3 °C 13.5 °C 1013.4 hPa Calm     92% 0 mm 0 W/m2
04:54 14.2 °C 13.4 °C 1013.4 hPa Calm     92% 0 mm 0 W/m2
04:59 14.2 °C 13.4 °C 1013.4 hPa Calm     92% 0 mm 0 W/m2
05:04 14.2 °C 13.4 °C 1013.4 hPa Calm     92% 0 mm 0 W/m2
05:09 14.1 °C 13.3 °C 1013.4 hPa Calm     92% 0 mm 0 W/m2
05:14 13.9 °C 13.2 °C 1013.4 hPa North 2.9 km/h 4.8 km/h 92% 0 mm 0 W/m2
05:19 13.8 °C 13.1 °C 1013.4 hPa North 4 km/h 6.4 km/h 92% 0 mm 0 W/m2
05:24 13.8 °C 13 °C 1013.4 hPa North 3.2 km/h 6.4 km/h 92% 0 mm 0 W/m2
05:29 13.7 °C 12.9 °C 1013.8 hPa North 2.6 km/h 4.8 km/h 92% 0 mm 0 W/m2
05:34 13.7 °C 12.9 °C 1013.8 hPa North 2.4 km/h 4.8 km/h 92.8% 0 mm 0 W/m2
05:39 13.6 °C 12.7 °C 1013.8 hPa North 2.9 km/h 4.8 km/h 92% 0 mm 0 W/m2
05:44 13.3 °C 12.8 °C 1013.8 hPa North 2.9 km/h 4.8 km/h 93% 0 mm 0 W/m2
05:49 13.2 °C 12.7 °C 1013.8 hPa North 2.1 km/h 4.8 km/h 93% 0 mm 0 W/m2
05:54 13.2 °C 12.6 °C 1013.8 hPa North 1.9 km/h 4.8 km/h 93% 0 mm 0 W/m2
05:59 13.2 °C 12.6 °C 1014.1 hPa North 1.1 km/h 4.8 km/h 93% 0 mm 0 W/m2
06:04 13.1 °C 12.5 °C 1014.1 hPa North 1.9 km/h 4.8 km/h 93% 0 mm 0 W/m2
06:09 13.1 °C 12.5 °C 1014.1 hPa North 2.6 km/h 4.8 km/h 93% 0 mm 0 W/m2
06:14 13.1 °C 12.4 °C 1014.1 hPa North 0.6 km/h 4.8 km/h 93% 0 mm 0 W/m2
06:19 12.9 °C 12.3 °C 1014.1 hPa Calm   3.2 km/h 93% 0 mm 0 W/m2
06:24 12.9 °C 12.3 °C 1014.1 hPa Calm     93% 0 mm 0 W/m2
06:29 12.9 °C 12.3 °C 1014.1 hPa Calm     93% 0 mm 0 W/m2
06:34 12.9 °C 12.3 °C 1014.1 hPa Calm     93% 0 mm 0 W/m2
06:39 12.9 °C 12.3 °C 1014.4 hPa Calm     93% 0 mm 0 W/m2
06:44 12.8 °C 12.2 °C 1014.4 hPa Calm     93% 0 mm 0 W/m2
06:49 12.8 °C 12.2 °C 1014.4 hPa Calm   6.4 km/h 93% 0 mm 5 W/m2
06:54 12.8 °C 12.3 °C 1014.4 hPa North 1 km/h 3.2 km/h 93.6% 0 mm 7 W/m2
06:59 12.7 °C 12.3 °C 1014.4 hPa North 0.3 km/h 3.2 km/h 94% 0 mm 11 W/m2
07:04 12.6 °C 12.2 °C 1014.8 hPa North 0.6 km/h 3.2 km/h 94% 0 mm 12 W/m2
07:09 12.6 °C 12.2 °C 1014.8 hPa Calm     94% 0 mm 16 W/m2
07:14 12.6 °C 12.2 °C 1014.8 hPa Calm     94% 0 mm 21 W/m2
07:19 12.6 °C 12.2 °C 1014.8 hPa Calm     94% 0 mm 25 W/m2
07:24 12.5 °C 12.1 °C 1014.8 hPa Calm     94% 0 mm 30 W/m2
07:29 12.5 °C 12.1 °C 1014.8 hPa Calm     94% 0 mm 39 W/m2
07:34 12.5 °C 12.1 °C 1015.1 hPa Calm     94% 0 mm 46 W/m2
07:39 12.5 °C 12.1 °C 1015.1 hPa Calm     94% 0 mm 49 W/m2
07:44 12.6 °C 12.2 °C 1015.1 hPa Calm   1.6 km/h 94% 0 mm 49 W/m2
07:49 12.7 °C 12.2 °C 1015.1 hPa North 0.6 km/h 1.6 km/h 94% 0 mm 51 W/m2
07:54 12.7 °C 12.3 °C 1015.1 hPa Calm     94% 0 mm 53 W/m2
07:59 12.9 °C 12.5 °C 1015.1 hPa Calm     94% 0 mm 54 W/m2
08:04 13.1 °C 12.7 °C 1015.1 hPa Calm     94% 0 mm 83 W/m2
08:09 13.1 °C 12.7 °C 1015.1 hPa Calm     94% 0 mm 79 W/m2
08:14 13.2 °C 12.8 °C 1015.1 hPa Calm     94% 0 mm 91 W/m2
08:19 13.3 °C 12.9 °C 1015.1 hPa Calm     94% 0 mm 102 W/m2
08:24 13.3 °C 12.9 °C 1015.1 hPa North 0.6 km/h 3.2 km/h 94% 0 mm 113 W/m2
08:29 13.3 °C 12.9 °C 1015.1 hPa North 1.3 km/h 4.8 km/h 94% 0 mm 113 W/m2
08:34 13.3 °C 12.9 °C 1015.1 hPa North 1.3 km/h 3.2 km/h 94% 0 mm 121 W/m2
08:39 13.6 °C 13.2 °C 1015.5 hPa North 1 km/h 4.8 km/h 94.6% 0 mm 139 W/m2
08:44 13.7 °C 13.4 °C 1015.5 hPa North 0.6 km/h 4.8 km/h 95% 0 mm 151 W/m2
08:49 13.8 °C 13.6 °C 1015.1 hPa North 1.9 km/h 4.8 km/h 95% 0 mm 167 W/m2
08:54 14.1 °C 13.8 °C 1015.5 hPa North 0.6 km/h 4.8 km/h 95% 0 mm 190 W/m2
08:59 14.3 °C 14.1 °C 1015.1 hPa Calm   4.8 km/h 95% 0 mm 204 W/m2
09:04 14.6 °C 14.3 °C 1015.5 hPa North 2.9 km/h 8 km/h 94.8% 0 mm 251 W/m2
09:09 14.7 °C 14.2 °C 1015.5 hPa North 1.9 km/h 8 km/h 94% 0 mm 251 W/m2
09:14 14.7 °C 14.2 °C 1015.5 hPa North 2.4 km/h 8 km/h 94% 0 mm 111 W/m2
09:19 14.6 °C 14.1 °C 1015.5 hPa North 5.1 km/h 8 km/h 93.8% 0 mm 125 W/m2
09:23 14.6 °C 14 °C 1015.5 hPa North 4 km/h 8 km/h 93% 0 mm 181 W/m2
09:29 14.7 °C 14.1 °C 1015.8 hPa Calm   6.4 km/h 93% 0 mm 183 W/m2
09:34 14.8 °C 14.2 °C 1015.8 hPa North 1.9 km/h 4.8 km/h 93% 0 mm 185 W/m2
09:39 14.9 °C 14.3 °C 1015.8 hPa North 1 km/h 8 km/h 92.6% 0 mm 165 W/m2
09:44 14.9 °C 14.1 °C 1015.8 hPa North 2.3 km/h 8 km/h 92% 0 mm 213 W/m2
09:49 15.1 °C 14.1 °C 1015.8 hPa Calm     91.2% 0 mm 364 W/m2
09:54 15.3 °C 14.3 °C 1015.8 hPa North 5.3 km/h 8 km/h 91% 0 mm 237 W/m2
09:59 15.2 °C 14.1 °C 1015.8 hPa North 4.2 km/h 8 km/h 90% 0 mm 297 W/m2
10:04 15.3 °C 14.2 °C 1015.8 hPa North 3.5 km/h 8 km/h 89.8% 0 mm 399 W/m2
10:09 15.6 °C 14.2 °C 1015.8 hPa North 3.7 km/h 8 km/h 88.6% 0 mm 345 W/m2
10:14 15.6 °C 14.1 °C 1015.8 hPa North 5.8 km/h 9.7 km/h 87.8% 0 mm 172 W/m2
10:19 15.6 °C 13.9 °C 1015.8 hPa North 4 km/h 8 km/h 87% 0 mm 193 W/m2
10:24 15.7 °C 13.9 °C 1016.1 hPa North 2.7 km/h 8 km/h 87% 0 mm 471 W/m2
10:29 15.9 °C 14.2 °C 1016.1 hPa North 4 km/h 8 km/h 87% 0 mm 443 W/m2
10:34 15.9 °C 14.1 °C 1016.1 hPa North 6.4 km/h 9.7 km/h 86% 0 mm 130 W/m2
10:39 15.7 °C 13.9 °C 1016.1 hPa North 2.6 km/h 11.3 km/h 86% 0 mm 137 W/m2
10:44 15.8 °C 14 °C 1016.1 hPa North 4 km/h 11.3 km/h 86% 0 mm 480 W/m2
10:49 16.2 °C 14.2 °C 1016.1 hPa North 1.6 km/h 11.3 km/h 85.2% 0 mm 506 W/m2
10:54 16.6 °C 14.3 °C 1016.1 hPa North 2.6 km/h 9.7 km/h 84% 0 mm 334 W/m2
10:59 16.4 °C 14 °C 1016.1 hPa North 6.4 km/h 12.9 km/h 83.2% 0 mm 438 W/m2
11:04 16.3 °C 13.9 °C 1016.1 hPa North 3.9 km/h 12.9 km/h 83% 0 mm 508 W/m2
11:09 16.7 °C 14.3 °C 1016.1 hPa North 5.3 km/h 12.9 km/h 83.2% 0 mm 522 W/m2
11:14 16.9 °C 14.3 °C 1016.1 hPa North 6 km/h 11.3 km/h 82% 0 mm 538 W/m2
11:19 17.3 °C 14.3 °C 1016.1 hPa North 5 km/h 11.3 km/h 80.4% 0 mm 533 W/m2
11:24 17.3 °C 14.1 °C 1016.1 hPa North 3.9 km/h 9.7 km/h 79.4% 0 mm 582 W/m2
11:29 17.3 °C 14.3 °C 1016.1 hPa North 4 km/h 11.3 km/h 79.6% 0 mm 571 W/m2
11:34 17.5 °C 14.5 °C 1015.8 hPa North 4.2 km/h 9.7 km/h 80% 0 mm 566 W/m2
11:39 17.2 °C 14.2 °C 1015.8 hPa NNW 6.6 km/h 14.5 km/h 80% 0 mm 573 W/m2
11:44 17.2 °C 14.2 °C 1015.8 hPa NNW 5.6 km/h 14.5 km/h 80.2% 0 mm 638 W/m2
11:49 17.1 °C 14.2 °C 1015.8 hPa NNW 7.7 km/h 14.5 km/h 80.8% 0 mm 645 W/m2
11:54 16.9 °C 13.9 °C 1015.8 hPa NNW 8.5 km/h 14.5 km/h 80% 0 mm 645 W/m2
11:59 16.7 °C 13.8 °C 1015.8 hPa NNW 7.4 km/h 12.9 km/h 80.8% 0 mm 603 W/m2
12:04 16.9 °C 14.1 °C 1015.5 hPa NW 8.7 km/h 14.5 km/h 80.8% 0 mm 612 W/m2
12:09 17.3 °C 14.4 °C 1015.8 hPa NNW 6 km/h 12.9 km/h 80.4% 0 mm 629 W/m2
12:14 17.5 °C 14.4 °C 1015.5 hPa NNW 8.4 km/h 16.1 km/h 79.4% 0 mm 608 W/m2
12:19 17.3 °C 14.2 °C 1015.5 hPa North 5.6 km/h 16.1 km/h 79.4% 0 mm 621 W/m2
12:24 17.7 °C 14.4 °C 1015.5 hPa North 7.1 km/h 11.3 km/h 78.8% 0 mm 615 W/m2
12:29 17.4 °C 14.1 °C 1015.5 hPa North 9.3 km/h 14.5 km/h 78.4% 0 mm 621 W/m2
12:34 17.6 °C 14.4 °C 1015.5 hPa North 7.7 km/h 12.9 km/h 79.2% 0 mm 633 W/m2
12:39 17.6 °C 14.3 °C 1015.5 hPa NNW 7.1 km/h 14.5 km/h 78.8% 0 mm 628 W/m2
12:44 17.7 °C 14.3 °C 1015.5 hPa NNW 10.6 km/h 16.1 km/h 78.2% 0 mm 668 W/m2
12:49 17.7 °C 14.3 °C 1015.5 hPa NW 5.1 km/h 16.1 km/h 78% 0 mm 701 W/m2
12:54 18.1 °C 14.7 °C 1015.5 hPa NNW 5.3 km/h 19.3 km/h 78.2% 0 mm 671 W/m2
12:59 18.3 °C 14.7 °C 1015.5 hPa NW 5.1 km/h 12.9 km/h 77.3% 0 mm 671 W/m2
13:04 18.3 °C 14.6 °C 1015.5 hPa NNW 10.9 km/h 19.3 km/h 76.2% 0 mm 673 W/m2
13:09 18.1 °C 14.3 °C 1015.5 hPa NW 10.8 km/h 19.3 km/h 76.4% 0 mm 636 W/m2
13:14 17.8 °C 14.2 °C 1015.5 hPa NW 8.5 km/h 17.7 km/h 76.6% 0 mm 650 W/m2
13:19 18.1 °C 14.5 °C 1015.5 hPa NNW 6.8 km/h 12.9 km/h 77% 0 mm 664 W/m2
13:24 18.6 °C 14.7 °C 1015.5 hPa NNW 10.5 km/h 16.1 km/h 75.4% 0 mm 675 W/m2
13:29 18.7 °C 14.7 °C 1015.5 hPa WNW 10 km/h 19.3 km/h 75.4% 0 mm 721 W/m2
13:34 18.7 °C 14.3 °C 1015.5 hPa NW 10.6 km/h 19.3 km/h 73.4% 0 mm 729 W/m2
13:39 18.6 °C 14.4 °C 1015.5 hPa WNW 9.2 km/h 17.7 km/h 74% 0 mm 650 W/m2
13:44 18.9 °C 14.8 °C 1015.5 hPa NW 5.8 km/h 12.9 km/h 74.6% 0 mm 621 W/m2
13:49 19.2 °C 14.7 °C 1015.5 hPa NW 6.9 km/h 14.5 km/h 73.4% 0 mm 631 W/m2
13:54 19.3 °C 14.7 °C 1015.5 hPa North 10.9 km/h 14.5 km/h 72.4% 0 mm 633 W/m2
13:59 19.1 °C 14.6 °C 1015.5 hPa NNW 7.7 km/h 14.5 km/h 73% 0 mm 603 W/m2
14:04 19.4 °C 15 °C 1015.5 hPa NNW 4.8 km/h 17.7 km/h 73.6% 0 mm 626 W/m2
14:09 19.4 °C 14.8 °C 1015.5 hPa NNW 5.6 km/h 12.9 km/h 72% 0 mm 606 W/m2
14:14 19.2 °C 14.6 °C 1015.5 hPa NNW 10.6 km/h 17.7 km/h 72% 0 mm 608 W/m2
14:19 19.3 °C 14.6 °C 1015.5 hPa NNW 8.4 km/h 20.9 km/h 71.8% 0 mm 608 W/m2
14:24 19.2 °C 14.3 °C 1015.5 hPa NNW 9.8 km/h 16.1 km/h 71.2% 0 mm 606 W/m2
14:29 19.5 °C 14.8 °C 1015.5 hPa NNW 7.4 km/h 17.7 km/h 71.8% 0 mm 589 W/m2
14:34 19.7 °C 14.2 °C 1015.1 hPa NNW 10.6 km/h 17.7 km/h 68.8% 0 mm 584 W/m2
14:39 19.6 °C 14.5 °C 1015.1 hPa NNW 10.6 km/h 17.7 km/h 70% 0 mm 578 W/m2
14:44 19.7 °C 14.4 °C 1015.1 hPa NW 6.4 km/h 12.9 km/h 69.6% 0 mm 582 W/m2
14:49 20.2 °C 14.8 °C 1015.1 hPa NNW 2.7 km/h 12.9 km/h 69% 0 mm 584 W/m2
14:54 20.4 °C 14.9 °C 1015.1 hPa NNW 6 km/h 11.3 km/h 68.6% 0 mm 570 W/m2
14:59 20.4 °C 14.8 °C 1015.1 hPa NNW 5.1 km/h 11.3 km/h 68.3% 0 mm 570 W/m2
15:04 20.4 °C 14.8 °C 1015.1 hPa NW 7.6 km/h 14.5 km/h 68% 0 mm 564 W/m2
15:09 20.5 °C 14.9 °C 1015.1 hPa NW 7.2 km/h 12.9 km/h 68.2% 0 mm 568 W/m2
15:14 20.3 °C 14.7 °C 1015.5 hPa NNW 10.8 km/h 14.5 km/h 68.2% 0 mm 570 W/m2
15:19 20.2 °C 14.6 °C 1015.5 hPa NNW 6.4 km/h 12.9 km/h 68.4% 0 mm 577 W/m2
15:24 20.5 °C 15 °C 1015.5 hPa North 9.7 km/h 16.1 km/h 68.4% 0 mm 592 W/m2
15:29 20.7 °C 15.1 °C 1015.1 hPa North 6 km/h 14.5 km/h 68% 0 mm 584 W/m2
15:34 20.8 °C 15.2 °C 1015.5 hPa NNE 6 km/h 16.1 km/h 68% 0 mm 584 W/m2
15:39 20.8 °C 15.1 °C 1015.5 hPa NNW 4.8 km/h 12.9 km/h 67.6% 0 mm 589 W/m2
15:44 20.7 °C 15.2 °C 1015.1 hPa NW 4.7 km/h 9.7 km/h 68.6% 0 mm 599 W/m2
15:49 20.9 °C 15.2 °C 1015.1 hPa NNW 6.3 km/h 12.9 km/h 68% 0 mm 236 W/m2
15:54 20.7 °C 15.2 °C 1015.1 hPa NNW 4.5 km/h 9.7 km/h 68.6% 0 mm 218 W/m2
15:59 20.9 °C 15.3 °C 1015.5 hPa NNW 2.7 km/h 6.4 km/h 68.2% 0 mm 471 W/m2
16:04 20.8 °C 15.2 °C 1015.5 hPa NNW 5 km/h 11.3 km/h 68% 0 mm 471 W/m2
16:09 20.5 °C 15.1 °C 1015.5 hPa NNW 4.7 km/h 11.3 km/h 68.8% 0 mm 497 W/m2
16:14 20.6 °C 15.3 °C 1015.5 hPa NNW 3.4 km/h 9.7 km/h 69.8% 0 mm 239 W/m2
16:19 20.6 °C 15.3 °C 1015.5 hPa NNW 4 km/h 9.7 km/h 69.3% 0 mm 364 W/m2
16:24 20.4 °C 15.3 °C 1015.5 hPa NNW 5.1 km/h 9.7 km/h 70% 0 mm 457 W/m2
16:29 20.7 °C 15.5 °C 1015.5 hPa NNW 4 km/h 8 km/h 70% 0 mm 464 W/m2
16:34 20.9 °C 15.6 °C 1015.5 hPa Calm   6.4 km/h 69.2% 0 mm 439 W/m2
16:39 21.1 °C 15.7 °C 1015.5 hPa NNW 2.3 km/h 8 km/h 69% 0 mm 434 W/m2
16:44 21.2 °C 15.6 °C 1015.5 hPa NW 5.8 km/h 17.7 km/h 68.4% 0 mm 334 W/m2
16:49 20.7 °C 15.3 °C 1015.5 hPa WNW 6 km/h 14.5 km/h 69.2% 0 mm 156 W/m2
16:54 20.3 °C 15.2 °C 1015.8 hPa WNW 3.9 km/h 11.3 km/h 70% 0 mm 214 W/m2
16:59 20.2 °C 15.2 °C 1015.8 hPa WNW 5.5 km/h 8 km/h 70.6% 0 mm 214 W/m2
17:04 20.1 °C 15.3 °C 1015.8 hPa WNW 4 km/h 8 km/h 71.4% 0 mm 204 W/m2
17:09 20.1 °C 15.4 °C 1015.8 hPa WNW 5 km/h 9.7 km/h 72% 0 mm 294 W/m2
17:14 20.1 °C 15.5 °C 1015.8 hPa WNW 2.6 km/h 8 km/h 72.4% 0 mm 100 W/m2
17:19 20.1 °C 15.4 °C 1015.8 hPa WNW 2.1 km/h 8 km/h 72.2% 0 mm 121 W/m2
17:23 20.1 °C 15.5 °C 1015.8 hPa WNW 0.3 km/h 3.2 km/h 72.8% 0 mm 253 W/m2
17:29 20.3 °C 15.8 °C 1015.8 hPa Calm   1.6 km/h 73% 0 mm 267 W/m2
17:34 20.8 °C 15.9 °C 1015.8 hPa Calm     71.8% 0 mm 271 W/m2
17:39 21.3 °C 16.2 °C 1015.8 hPa WNW 1.4 km/h 9.7 km/h 70.8% 0 mm 267 W/m2
17:44 21.4 °C 16.2 °C 1015.8 hPa WNW 1.9 km/h 8 km/h 70% 0 mm 262 W/m2
17:49 21.3 °C 16.2 °C 1015.8 hPa WNW 4.5 km/h 9.7 km/h 70.6% 0 mm 246 W/m2
17:54 20.9 °C 16 °C 1015.8 hPa WNW 7.9 km/h 12.9 km/h 71.4% 0 mm 153 W/m2
17:59 20.3 °C 15.8 °C 1016.1 hPa WNW 6 km/h 12.9 km/h 72.8% 0 mm 130 W/m2
18:04 19.9 °C 15.7 °C 1016.1 hPa WNW 8.2 km/h 12.9 km/h 74.2% 0 mm 100 W/m2
18:08 19.7 °C 15.7 °C 1016.1 hPa WNW 8 km/h 14.5 km/h 75% 0 mm 90 W/m2
18:14 19.6 °C 15.6 °C 1016.1 hPa WNW 5.8 km/h 11.3 km/h 75.8% 0 mm 76 W/m2
18:19 19.3 °C 15.5 °C 1016.1 hPa WNW 6.6 km/h 12.9 km/h 76.2% 0 mm 72 W/m2
18:24 19.3 °C 15.7 °C 1016.1 hPa WNW 5 km/h 9.7 km/h 77% 0 mm 72 W/m2
18:29 19.3 °C 15.7 °C 1016.1 hPa WNW 6.1 km/h 11.3 km/h 77% 0 mm 62 W/m2
18:34 19.2 °C 15.6 °C 1016.1 hPa WNW 4 km/h 9.7 km/h 77% 0 mm 53 W/m2
18:39 19.2 °C 15.6 °C 1016.1 hPa WNW 6.8 km/h 12.9 km/h 77% 0 mm 44 W/m2
18:44 19.1 °C 15.5 °C 1016.1 hPa WNW 4.8 km/h 12.9 km/h 77% 0 mm 49 W/m2
18:49 18.9 °C 15.3 °C 1016.1 hPa WNW 5.6 km/h 11.3 km/h 77.2% 0 mm 44 W/m2
18:54 18.8 °C 15.3 °C 1016.5 hPa WNW 3.7 km/h 8 km/h 77.6% 0 mm 44 W/m2
18:59 18.7 °C 15.3 °C 1016.5 hPa WNW 5.6 km/h 9.7 km/h 78% 0 mm 33 W/m2
19:04 18.6 °C 15.2 °C 1016.5 hPa WNW 3.2 km/h 8 km/h 78% 0 mm 23 W/m2
19:09 18.4 °C 15 °C 1016.5 hPa WNW 3.4 km/h 8 km/h 78% 0 mm 11 W/m2
19:14 18.3 °C 14.8 °C 1016.5 hPa WNW 4 km/h 9.7 km/h 78% 0 mm 7 W/m2
19:19 18.2 °C 14.9 °C 1016.5 hPa WNW 2.6 km/h 8 km/h 79% 0 mm 5 W/m2
19:24 18.1 °C 14.8 °C 1016.5 hPa WNW 0.8 km/h 4.8 km/h 79% 0 mm 0 W/m2
19:29 17.9 °C 14.9 °C 1016.5 hPa WNW 3.9 km/h 6.4 km/h 80% 0 mm 0 W/m2
19:34 17.8 °C 14.8 °C 1016.5 hPa WNW 2.6 km/h 6.4 km/h 80% 0 mm 0 W/m2
19:39 17.7 °C 14.8 °C 1016.5 hPa WNW 0.3 km/h 4.8 km/h 80.2% 0 mm 0 W/m2
19:44 17.6 °C 14.8 °C 1016.5 hPa WNW 0.6 km/h 4.8 km/h 81% 0 mm 0 W/m2
19:49 17.5 °C 14.7 °C 1016.8 hPa Calm     81% 0 mm 0 W/m2
19:54 17.4 °C 14.6 °C 1016.8 hPa Calm     81% 0 mm 0 W/m2
19:59 17.3 °C 14.7 °C 1016.8 hPa Calm     81.8% 0 mm 0 W/m2
20:04 17.2 °C 14.7 °C 1016.8 hPa Calm     82% 0 mm 0 W/m2
20:09 17.2 °C 14.6 °C 1016.8 hPa Calm     82% 0 mm 0 W/m2
20:14 17 °C 14.5 °C 1016.8 hPa Calm     82.6% 0 mm 0 W/m2
20:19 16.9 °C 14.5 °C 1016.8 hPa Calm     83% 0 mm 0 W/m2
20:24 16.9 °C 14.5 °C 1016.8 hPa Calm     83% 0 mm 0 W/m2
20:29 16.8 °C 14.4 °C 1016.8 hPa Calm     83% 0 mm 0 W/m2
20:34 16.7 °C 14.3 °C 1017.2 hPa Calm     83.2% 0 mm 0 W/m2
20:39 16.6 °C 14.4 °C 1017.2 hPa Calm     84% 0 mm 0 W/m2
20:44 16.6 °C 14.3 °C 1017.2 hPa Calm     84% 0 mm 0 W/m2
20:49 16.5 °C 14.3 °C 1017.2 hPa Calm     84% 0 mm 0 W/m2
20:54 16.4 °C 14.2 °C 1017.2 hPa Calm     84% 0 mm 0 W/m2
20:59 16.4 °C 14.2 °C 1017.2 hPa Calm     84% 0 mm 0 W/m2
21:04 16.4 °C 14.4 °C 1017.2 hPa Calm     85% 0 mm 0 W/m2
21:09 16.4 °C 14.4 °C 1017.2 hPa Calm     85% 0 mm 0 W/m2
21:14 16.3 °C 14.3 °C 1017.2 hPa Calm     85% 0 mm 0 W/m2
21:19 16.1 °C 14.1 °C 1017.2 hPa Calm     85% 0 mm 0 W/m2
21:24 16 °C 14 °C 1017.2 hPa Calm     85% 0 mm 0 W/m2
21:29 15.8 °C 13.8 °C 1017.2 hPa Calm     85% 0 mm 0 W/m2
21:34 15.7 °C 13.7 °C 1017.2 hPa Calm     85% 0 mm 0 W/m2
21:39 15.3 °C 13.5 °C 1017.2 hPa WNW 1.3 km/h 4.8 km/h 85.8% 0 mm 0 W/m2
21:44 15.2 °C 13.3 °C 1017.5 hPa WNW 1.3 km/h 4.8 km/h 86% 0 mm 0 W/m2
21:48 14.9 °C 13.2 °C 1017.5 hPa WNW 0.3 km/h 4.8 km/h 86.5% 0 mm 0 W/m2
21:54 14.9 °C 13.2 °C 1017.5 hPa Calm   3.2 km/h 87% 0 mm 0 W/m2
21:59 14.8 °C 13.2 °C 1017.5 hPa Calm     87% 0 mm 0 W/m2
22:04 14.7 °C 13 °C 1017.5 hPa Calm     87% 0 mm 0 W/m2
22:09 14.7 °C 13.1 °C 1017.5 hPa Calm     87.4% 0 mm 0 W/m2
22:14 14.6 °C 13.1 °C 1017.5 hPa Calm     87.6% 0 mm 0 W/m2
22:19 14.6 °C 13.1 °C 1017.5 hPa Calm     88% 0 mm 0 W/m2
22:24 14.7 °C 13.2 °C 1017.5 hPa Calm     88% 0 mm 0 W/m2
22:29 14.7 °C 13.2 °C 1017.5 hPa Calm     88% 0 mm 0 W/m2
22:34 14.7 °C 13.2 °C 1017.5 hPa Calm     88% 0 mm 0 W/m2
22:39 14.7 °C 13.3 °C 1017.5 hPa Calm     88.4% 0 mm 0 W/m2
22:44 14.7 °C 13.3 °C 1017.5 hPa Calm     88.8% 0 mm 0 W/m2
22:49 14.7 °C 13.3 °C 1017.8 hPa Calm     88.8% 0 mm 0 W/m2
22:54 14.7 °C 13.4 °C 1017.5 hPa Calm     89% 0 mm 0 W/m2
22:59 14.7 °C 13.3 °C 1017.5 hPa Calm     89% 0 mm 0 W/m2
23:04 14.6 °C 13.3 °C 1017.5 hPa Calm     89% 0 mm 0 W/m2
23:09 14.6 °C 13.3 °C 1017.5 hPa Calm     89% 0 mm 0 W/m2
23:14 14.4 °C 13.1 °C 1017.5 hPa Calm     89% 0 mm 0 W/m2
23:19 14.3 °C 13.1 °C 1017.5 hPa Calm     89% 0 mm 0 W/m2
23:24 14.3 °C 13 °C 1017.5 hPa Calm     89% 0 mm 0 W/m2
23:29 14.3 °C 13 °C 1017.5 hPa Calm     89% 0 mm 0 W/m2
23:33 14.3 °C 13.1 °C 1017.5 hPa Calm     89.5% 0 mm 0 W/m2
23:39 14.2 °C 13.1 °C 1017.5 hPa Calm     90% 0 mm 0 W/m2
23:44 14.2 °C 13.1 °C 1017.5 hPa Calm     90% 0 mm 0 W/m2
23:49 14.2 °C 13.1 °C 1017.5 hPa Calm     90% 0 mm 0 W/m2
23:54 14.2 °C 13.1 °C 1017.5 hPa Calm     90% 0 mm 0 W/m2
23:59 14.2 °C 13.1 °C 1017.5 hPa Calm     90% 0 mm 0 W/m2
Bath Spa Weather
Compliments of Weather Underground - 2 mb